Time;durP1;ratioP1;P1;durP2;ratioP2;P2;SDS_P1;SDS_P2;PMS_P1;PMS_P2;Temp;Humidity;BMP_temperature;BMP_pressure;BME280_temperature;BME280_humidity;BME280_pressure;Samples;Min_cycle;Max_cycle;Signal;HPM_P1;HPM_P2
2024/04/10 00:01:32;;;;;;;3.70;1.77;;;;;;;11.73;82.11;98737.25;4467563;26;21118;-81
2024/04/10 00:03:39;;;;;;;2.90;1.40;;;;;;;11.75;82.38;98737.16;4523960;26;20948;-81
2024/04/10 00:05:43;;;;;;;3.10;1.60;;;;;;;11.76;81.72;98730.06;4497354;26;21141;-81
2024/04/10 00:07:48;;;;;;;3.83;1.60;;;;;;;11.75;81.24;98727.53;4491207;26;20561;-81
2024/04/10 00:09:52;;;;;;;3.90;1.77;;;;;;;11.73;82.26;98728.56;4496758;26;20640;-81
2024/04/10 00:12:02;;;;;;;3.63;1.87;;;;;;;11.69;82.52;98725.31;4491792;26;20672;-81
2024/04/10 00:14:06;;;;;;;3.30;1.40;;;;;;;11.68;82.85;98733.22;4496197;26;21241;-81
2024/04/10 00:16:12;;;;;;;4.03;1.83;;;;;;;11.64;82.32;98739.59;4467770;26;20593;-81
2024/04/10 00:18:16;;;;;;;3.97;1.80;;;;;;;11.66;82.96;98749.00;4527973;26;20616;-81
2024/04/10 00:20:22;;;;;;;3.83;1.70;;;;;;;11.67;82.54;98755.91;4470198;26;20648;-81
2024/04/10 00:22:26;;;;;;;3.50;1.80;;;;;;;11.65;82.92;98756.94;4496126;26;21130;-81
2024/04/10 00:24:32;;;;;;;3.20;1.77;;;;;;;11.64;83.49;98756.09;4495041;26;21056;-81
2024/04/10 00:26:37;;;;;;;3.97;2.10;;;;;;;11.64;83.53;98752.66;4466392;26;20612;-81
2024/04/10 00:28:46;;;;;;;2.80;1.90;;;;;;;11.64;83.29;98766.56;4526709;26;21401;-81
2024/04/10 00:30:49;;;;;;;5.63;1.70;;;;;;;11.63;83.66;98764.03;4523085;26;20606;-81
2024/04/10 00:32:55;;;;;;;3.90;1.77;;;;;;;11.60;83.80;98765.06;4523608;26;21563;-81
2024/04/10 00:34:59;;;;;;;4.87;2.00;;;;;;;11.57;83.62;98770.47;4495177;26;20699;-81
2024/04/10 00:37:05;;;;;;;3.90;1.77;;;;;;;11.54;83.60;98765.44;4526992;26;20909;-81
2024/04/10 00:39:09;;;;;;;2.80;1.57;;;;;;;11.53;83.45;98762.91;4474332;26;20570;-81
2024/04/10 00:41:14;;;;;;;2.90;1.93;;;;;;;11.51;83.35;98765.63;4487820;26;20552;-81
2024/04/10 00:43:20;;;;;;;5.10;1.90;;;;;;;11.47;83.26;98758.06;4497305;26;20937;-81
2024/04/10 00:45:29;;;;;;;4.40;2.10;;;;;;;11.43;83.29;98761.78;4524246;26;20554;-81
2024/04/10 00:47:32;;;;;;;3.17;1.77;;;;;;;11.41;82.79;98764.50;4525314;26;20605;-81
2024/04/10 00:49:38;;;;;;;5.03;1.90;;;;;;;11.41;83.06;98767.09;4527565;26;20567;-81
2024/04/10 00:51:42;;;;;;;4.87;1.80;;;;;;;11.40;83.13;98772.41;4495041;26;20571;-80
2024/04/10 00:53:48;;;;;;;3.43;2.13;;;;;;;11.38;83.40;98774.25;4525383;26;20600;-80
2024/04/10 00:55:51;;;;;;;5.20;2.00;;;;;;;11.40;83.51;98785.47;4494204;26;20584;-81
2024/04/10 00:57:57;;;;;;;4.97;2.50;;;;;;;11.33;83.55;98777.16;4523478;26;20563;-81
2024/04/10 01:00:01;;;;;;;3.60;2.00;;;;;;;11.32;83.31;98780.72;4494276;26;20657;-81
2024/04/10 01:02:10;;;;;;;5.73;1.93;;;;;;;11.33;83.35;98784.16;4469286;26;20582;-80
2024/04/10 01:04:13;;;;;;;3.60;1.97;;;;;;;11.33;83.28;98787.59;4529995;26;21028;-81
2024/04/10 01:06:18;;;;;;;3.87;1.97;;;;;;;11.35;82.81;98790.13;4466734;26;20948;-81
2024/04/10 01:08:23;;;;;;;3.47;2.57;;;;;;;11.35;82.89;98785.75;4508796;26;20526;-82
2024/04/10 01:10:29;;;;;;;3.73;1.90;;;;;;;11.35;83.23;98780.53;4500717;26;20587;-81
2024/04/10 01:12:33;;;;;;;4.43;1.83;;;;;;;11.33;83.51;98786.75;4497444;26;20579;-81
2024/04/10 01:14:39;;;;;;;3.23;1.60;;;;;;;11.29;83.98;98790.50;4496961;26;20976;-81
2024/04/10 01:16:42;;;;;;;3.73;1.73;;;;;;;11.21;84.05;98784.88;4526723;26;20570;-80
2024/04/10 01:18:51;;;;;;;3.73;1.63;;;;;;;11.17;84.55;98788.63;4498948;26;20678;-81
2024/04/10 01:20:57;;;;;;;3.03;1.73;;;;;;;11.15;84.34;98789.66;4463642;26;20569;-80
2024/04/10 01:23:06;;;;;;;2.97;1.80;;;;;;;11.14;84.36;98791.44;4471394;26;21048;-81
2024/04/10 01:25:09;;;;;;;5.03;2.03;;;;;;;11.11;83.35;98795.97;4503315;26;20606;-81
2024/04/10 01:27:16;;;;;;;6.10;1.63;;;;;;;11.08;83.62;98791.78;4496574;26;20689;-81
2024/04/10 01:29:19;;;;;;;4.43;2.10;;;;;;;11.05;83.45;98798.94;4514270;26;20603;-81
2024/04/10 01:31:27;;;;;;;3.50;1.83;;;;;;;11.03;83.06;98806.84;4493106;26;20735;-81
2024/04/10 01:33:30;;;;;;;3.73;1.50;;;;;;;11.01;83.46;98811.34;4529514;26;20589;-81
2024/04/10 01:35:36;;;;;;;3.00;1.63;;;;;;;10.95;83.51;98805.66;4508200;26;20625;-81
2024/04/10 01:37:40;;;;;;;2.83;1.40;;;;;;;10.90;84.35;98808.53;4500076;26;20563;-81
2024/04/10 01:39:48;;;;;;;3.47;1.60;;;;;;;10.86;84.10;98817.44;4499760;26;20548;-81
2024/04/10 01:41:52;;;;;;;3.10;1.70;;;;;;;10.86;83.94;98827.88;4498762;26;20552;-82
2024/04/10 01:43:58;;;;;;;3.23;1.77;;;;;;;10.86;84.04;98819.22;4499713;26;20620;-81
2024/04/10 01:46:01;;;;;;;3.37;1.70;;;;;;;10.80;83.87;98820.41;4500062;26;21169;-81
2024/04/10 01:48:08;;;;;;;4.83;2.00;;;;;;;10.73;84.58;98810.41;4503085;26;20711;-81
2024/04/10 01:50:11;;;;;;;3.10;1.73;;;;;;;10.73;83.88;98820.00;4470024;26;20716;-81
2024/04/10 01:52:17;;;;;;;5.50;1.70;;;;;;;10.66;84.44;98822.16;4494197;26;20608;-80
2024/04/10 01:54:20;;;;;;;4.57;2.00;;;;;;;10.64;84.40;98825.75;4470479;26;20715;-81
2024/04/10 01:56:30;;;;;;;3.13;1.60;;;;;;;10.57;84.98;98829.63;4501249;26;20556;-81
2024/04/10 01:58:34;;;;;;;4.10;1.40;;;;;;;10.52;84.82;98831.66;4503091;26;20567;-81
2024/04/10 02:00:40;;;;;;;4.90;1.73;;;;;;;10.51;84.70;98824.78;4501367;26;21184;-81
2024/04/10 02:02:43;;;;;;;4.50;1.87;;;;;;;10.48;84.83;98835.38;4534300;26;21159;-80
2024/04/10 02:04:49;;;;;;;3.10;1.60;;;;;;;10.46;85.19;98832.00;4496711;26;20671;-81
2024/04/10 02:06:52;;;;;;;4.07;2.20;;;;;;;10.46;84.51;98842.44;4526303;26;20583;-80
2024/04/10 02:08:58;;;;;;;5.77;1.43;;;;;;;10.46;84.85;98834.59;4491691;26;20644;-81
2024/04/10 02:11:22;;;;;;;2.87;1.40;;;;;;;10.47;85.26;98839.75;4481418;26;20605;-81
2024/04/10 02:13:29;;;;;;;2.60;1.30;;;;;;;10.43;85.27;98838.25;4520931;26;20579;-81
2024/04/10 02:15:32;;;;;;;4.20;1.43;;;;;;;10.49;85.62;98847.47;4526815;26;20618;-81
2024/04/10 02:17:38;;;;;;;5.13;1.43;;;;;;;10.50;85.22;98844.78;4494181;26;20572;-81
2024/04/10 02:19:41;;;;;;;3.10;1.37;;;;;;;10.50;85.48;98842.19;4468445;26;20696;-81
2024/04/10 02:21:47;;;;;;;4.40;1.40;;;;;;;10.53;84.79;98844.63;4494312;26;20560;-81
2024/04/10 02:23:50;;;;;;;3.87;1.63;;;;;;;10.61;85.22;98854.63;4467600;26;20542;-81
2024/04/10 02:25:56;;;;;;;2.97;1.67;;;;;;;10.68;85.07;98858.56;4472898;26;20570;-81
2024/04/10 02:28:00;;;;;;;2.80;1.60;;;;;;;10.75;84.91;98859.88;4487963;26;20530;-81
2024/04/10 02:30:10;;;;;;;5.77;1.87;;;;;;;10.77;85.06;98864.09;4485906;26;20605;-81
2024/04/10 02:32:13;;;;;;;3.30;1.60;;;;;;;10.80;84.98;98859.53;4527073;26;20598;-81
2024/04/10 02:34:20;;;;;;;4.00;1.70;;;;;;;10.83;85.43;98864.59;4501145;26;21219;-81
2024/04/10 02:36:23;;;;;;;5.17;1.60;;;;;;;10.81;84.90;98860.41;4471052;26;20566;-81
2024/04/10 02:38:30;;;;;;;5.37;1.70;;;;;;;10.77;84.36;98868.50;4493774;26;20655;-81
2024/04/10 02:40:33;;;;;;;4.33;1.77;;;;;;;10.77;83.85;98864.09;4499103;26;20563;-81
2024/04/10 02:42:45;;;;;;;3.60;1.27;;;;;;;10.80;83.62;98862.16;4500116;26;21362;-81
2024/04/10 02:44:51;;;;;;;4.37;1.50;;;;;;;10.84;82.95;98870.66;4499932;26;21207;-81
2024/04/10 02:47:01;;;;;;;3.90;1.63;;;;;;;10.85;82.74;98878.41;4528446;26;20570;-81
2024/04/10 02:49:05;;;;;;;4.00;1.57;;;;;;;10.89;82.82;98886.91;4492936;26;20940;-81
2024/04/10 02:51:11;;;;;;;4.03;1.93;;;;;;;10.91;82.29;98879.81;4497188;26;20615;-80
2024/04/10 02:53:14;;;;;;;7.37;3.30;;;;;;;10.92;82.31;98889.34;4486606;26;23201;-81
2024/04/10 02:55:20;;;;;;;6.10;1.80;;;;;;;10.92;82.13;98891.94;4528461;26;20550;-81
2024/04/10 02:57:23;;;;;;;2.90;1.20;;;;;;;10.93;82.66;98885.78;4501340;26;20567;-81
2024/04/10 02:59:29;;;;;;;3.63;1.67;;;;;;;10.93;82.38;98893.59;4526722;26;20671;-81
2024/04/10 03:01:32;;;;;;;4.20;1.67;;;;;;;10.93;82.39;98897.06;4497405;26;20648;-81
2024/04/10 03:03:42;;;;;;;3.93;1.50;;;;;;;10.93;82.47;98898.81;4473525;26;20566;-80
2024/04/10 03:05:46;;;;;;;3.93;1.80;;;;;;;10.92;82.58;98884.94;4500778;26;20571;-81
2024/04/10 03:07:51;;;;;;;3.83;1.33;;;;;;;10.94;81.96;98892.69;4489287;26;21219;-81
2024/04/10 03:09:54;;;;;;;5.17;1.40;;;;;;;10.93;82.40;98893.59;4500353;26;20626;-81
2024/04/10 03:12:00;;;;;;;3.53;1.47;;;;;;;10.92;82.30;98900.59;4529891;26;20550;-80
2024/04/10 03:14:05;;;;;;;3.67;1.27;;;;;;;10.90;82.76;98899.84;4471417;26;20663;-81
2024/04/10 03:16:11;;;;;;;2.20;1.10;;;;;;;10.89;82.18;98899.94;4526583;26;20559;-81
2024/04/10 03:18:14;;;;;;;2.97;1.10;;;;;;;10.87;82.14;98902.63;4471550;26;21202;-79
2024/04/10 03:20:23;;;;;;;2.83;1.23;;;;;;;10.85;81.87;98896.69;4528671;26;20690;-81
2024/04/10 03:22:26;;;;;;;4.07;1.53;;;;;;;10.83;81.51;98901.13;4503545;26;20662;-81
2024/04/10 03:24:31;;;;;;;7.27;1.80;;;;;;;10.82;81.67;98898.59;4494325;26;20665;-81
2024/04/10 03:26:34;;;;;;;4.00;1.37;;;;;;;10.77;81.90;98902.41;4495546;26;20565;-81
2024/04/10 03:28:40;;;;;;;5.33;1.40;;;;;;;10.70;81.72;98899.28;4466663;26;20701;-81
2024/04/10 03:30:45;;;;;;;3.50;1.37;;;;;;;10.68;81.88;98906.38;4524361;26;20563;-81
2024/04/10 03:32:50;;;;;;;4.80;1.60;;;;;;;10.67;82.02;98903.84;4461332;26;20516;-81
2024/04/10 03:34:56;;;;;;;4.57;1.93;;;;;;;10.72;81.46;98909.63;4491662;26;20740;-81
2024/04/10 03:37:01;;;;;;;5.37;1.30;;;;;;;10.75;81.48;98912.06;4485639;26;20569;-81
2024/04/10 03:39:11;;;;;;;2.83;1.27;;;;;;;10.78;81.61;98917.13;4495904;26;20551;-81
2024/04/10 03:41:14;;;;;;;3.13;1.33;;;;;;;10.78;81.59;98917.13;4499167;26;21262;-80
2024/04/10 03:43:20;;;;;;;4.80;1.03;;;;;;;10.79;82.35;98918.81;4505375;26;21096;-81
2024/04/10 03:47:29;;;;;;;3.60;1.30;;;;;;;10.79;82.26;98918.81;4545278;25;21078;-80
2024/04/10 03:49:36;;;;;;;1.90;0.93;;;;;;;10.77;82.00;98929.34;4472700;26;20621;-81
2024/04/10 03:51:42;;;;;;;4.20;1.90;;;;;;;10.75;82.68;98935.53;4420345;26;20619;-81
2024/04/10 03:53:45;;;;;;;5.03;1.50;;;;;;;10.74;82.63;98936.50;4467744;26;20698;-81
2024/04/10 03:55:52;;;;;;;6.33;1.40;;;;;;;10.72;83.27;98938.31;4471078;26;20709;-80
2024/04/10 03:57:55;;;;;;;6.20;1.77;;;;;;;10.71;82.74;98944.50;4452416;26;20570;-80
2024/04/10 04:00:07;;;;;;;3.00;1.43;;;;;;;10.71;83.02;98947.09;4436612;26;20559;-80
2024/04/10 04:02:15;;;;;;;2.70;1.17;;;;;;;10.68;82.01;98949.88;4440720;26;20581;-80
2024/04/10 04:04:24;;;;;;;3.97;1.10;;;;;;;10.66;81.16;98951.72;4474969;26;20613;-80
2024/04/10 04:06:27;;;;;;;4.10;1.53;;;;;;;10.67;81.74;98956.00;4494199;26;20714;-81
2024/04/10 04:08:34;;;;;;;4.60;1.60;;;;;;;10.64;81.54;98962.22;4442871;26;20606;-80
2024/04/10 04:10:37;;;;;;;2.93;1.33;;;;;;;10.64;81.56;98961.41;4435059;26;20646;-82
2024/04/10 04:12:43;;;;;;;9.07;2.20;;;;;;;10.64;81.14;98967.44;4479243;26;20632;-81
2024/04/10 04:14:47;;;;;;;4.00;1.20;;;;;;;10.62;81.71;98966.69;4468660;26;20673;-81
2024/04/10 04:16:53;;;;;;;3.47;1.30;;;;;;;10.61;82.73;98970.22;4470214;26;20986;-81
2024/04/10 04:18:56;;;;;;;3.67;1.00;;;;;;;10.62;83.11;98986.72;4468602;26;20578;-81
2024/04/10 04:21:04;;;;;;;4.70;1.40;;;;;;;10.60;83.57;98994.63;4444612;26;21249;-81
2024/04/10 04:23:07;;;;;;;5.13;1.53;;;;;;;10.60;82.70;98994.63;4439525;26;21343;-81
2024/04/10 04:25:13;;;;;;;5.30;1.33;;;;;;;10.62;82.24;99005.00;4464881;26;20569;-80
2024/04/10 04:27:17;;;;;;;4.53;2.00;;;;;;;10.65;81.77;99008.25;4471241;26;20684;-81
2024/04/10 04:29:24;;;;;;;3.50;1.50;;;;;;;10.67;81.57;99009.00;4493876;26;20613;-80
2024/04/10 04:31:27;;;;;;;3.10;1.53;;;;;;;10.65;81.12;99010.88;4449457;26;20578;-81
2024/04/10 04:33:33;;;;;;;3.37;1.33;;;;;;;10.66;81.02;99007.34;4467995;26;21197;-81
2024/04/10 04:35:36;;;;;;;6.47;1.40;;;;;;;10.66;81.22;99011.69;4445883;26;20572;-81
2024/04/10 04:37:49;;;;;;;9.57;1.70;;;;;;;10.67;82.02;99009.00;4466956;26;21052;-81
2024/04/10 04:39:53;;;;;;;6.70;1.60;;;;;;;10.66;83.31;99009.09;4469772;26;20577;-81
2024/04/10 04:41:59;;;;;;;3.37;1.37;;;;;;;10.68;83.93;99023.75;4436898;26;20574;-81
2024/04/10 04:44:04;;;;;;;2.87;1.80;;;;;;;10.67;83.26;99032.50;4466562;26;20569;-81
2024/04/10 04:46:19;;;;;;;2.83;1.33;;;;;;;10.69;83.83;99027.19;4448701;26;20607;-81
2024/04/10 04:48:23;;;;;;;3.87;1.33;;;;;;;10.69;83.64;99032.41;4466664;26;20616;-81
2024/04/10 04:50:29;;;;;;;5.37;1.40;;;;;;;10.69;83.26;99021.97;4435602;26;21217;-81
2024/04/10 04:52:34;;;;;;;4.77;1.50;;;;;;;10.70;83.47;99023.66;4438901;26;20622;-81
2024/04/10 04:54:43;;;;;;;3.73;1.57;;;;;;;10.68;84.19;99026.38;4472189;26;20565;-81
2024/04/10 04:56:46;;;;;;;8.17;1.53;;;;;;;10.65;84.96;99023.09;4469016;26;21023;-81
2024/04/10 04:58:52;;;;;;;6.00;1.70;;;;;;;10.65;83.50;99017.88;4459601;26;20684;-80
2024/04/10 05:00:56;;;;;;;3.93;1.40;;;;;;;10.66;83.04;99020.41;4440677;26;21054;-81
2024/04/10 05:03:03;;;;;;;3.07;1.40;;;;;;;10.66;82.86;99022.13;4434202;26;20567;-81
2024/04/10 05:05:11;;;;;;;4.80;1.60;;;;;;;10.66;83.47;99023.00;4449649;26;21101;-81
2024/04/10 05:07:15;;;;;;;3.87;1.80;;;;;;;10.66;83.47;99033.44;4430222;26;21141;-81
2024/04/10 05:09:21;;;;;;;4.20;1.47;;;;;;;10.66;83.97;99029.97;4463736;26;20581;-81
2024/04/10 05:11:26;;;;;;;3.33;1.43;;;;;;;10.62;84.25;99041.50;4456314;26;20566;-82
2024/04/10 05:13:32;;;;;;;5.83;1.73;;;;;;;10.59;84.25;99046.88;4463565;26;21109;-81
2024/04/10 05:15:36;;;;;;;6.87;1.87;;;;;;;10.57;84.46;99043.50;4463674;26;20553;-81
2024/04/10 05:17:43;;;;;;;7.50;1.60;;;;;;;10.56;83.58;99047.88;4440872;26;20680;-81
2024/04/10 05:19:47;;;;;;;4.10;1.60;;;;;;;10.56;83.91;99065.31;4437701;26;20684;-81
2024/04/10 05:21:53;;;;;;;4.07;1.53;;;;;;;10.56;84.49;99055.72;4456697;26;21227;-81
2024/04/10 05:23:58;;;;;;;2.80;1.30;;;;;;;10.59;84.01;99063.38;4464180;26;20624;-81
2024/04/10 05:26:05;;;;;;;4.20;1.50;;;;;;;10.60;83.84;99066.81;4430260;26;20642;-81
2024/04/10 05:28:11;;;;;;;4.13;1.80;;;;;;;10.63;84.45;99061.44;4465691;26;20569;-81
2024/04/10 05:30:18;;;;;;;2.80;1.57;;;;;;;10.66;84.85;99063.88;4463185;26;20582;-80
2024/04/10 05:32:21;;;;;;;3.50;1.37;;;;;;;10.73;85.17;99075.69;4463798;26;20584;-81
2024/04/10 05:34:26;;;;;;;5.13;1.80;;;;;;;10.81;85.67;99082.19;4455878;26;20631;-80
2024/04/10 05:36:32;;;;;;;4.33;1.70;;;;;;;10.98;85.88;99087.34;4442615;26;20610;-80
2024/04/10 05:38:38;;;;;;;13.73;7.70;;;;;;;11.19;85.09;99092.22;4441419;26;20637;-80
2024/04/10 05:40:41;;;;;;;3.83;1.73;;;;;;;11.36;85.12;99090.34;4465160;26;20591;-79
2024/04/10 05:42:48;;;;;;;7.23;2.20;;;;;;;11.49;82.77;99090.56;4468452;26;21119;-80
2024/04/10 05:44:54;;;;;;;3.07;1.40;;;;;;;11.61;82.83;99095.94;4484223;26;21287;-80
2024/04/10 05:47:00;;;;;;;8.37;2.17;;;;;;;11.76;82.96;99103.75;4461417;26;20672;-81
2024/04/10 05:49:05;;;;;;;4.50;2.10;;;;;;;11.94;82.40;99110.56;4457860;26;21072;-82
2024/04/10 05:51:11;;;;;;;7.23;1.90;;;;;;;12.19;82.13;99116.03;4441009;26;20567;-82
2024/04/10 05:53:16;;;;;;;3.40;1.60;;;;;;;12.43;80.17;99119.81;4445484;26;20654;-82
2024/04/10 05:55:22;;;;;;;3.97;2.00;;;;;;;12.64;79.79;99124.63;4467984;26;20567;-82
2024/04/10 05:57:26;;;;;;;3.17;1.50;;;;;;;12.79;78.54;99140.28;4443896;26;20662;-82
2024/04/10 05:59:30;;;;;;;9.40;2.37;;;;;;;12.97;77.34;99143.56;4474788;26;20911;-83
2024/04/10 06:01:40;;;;;;;9.40;2.93;;;;;;;13.11;77.23;99141.78;4465047;26;20568;-82
2024/04/10 06:03:45;;;;;;;4.50;2.00;;;;;;;13.32;77.05;99149.16;4467318;26;20593;-82
2024/04/10 06:05:50;;;;;;;10.20;2.33;;;;;;;13.36;75.74;99148.00;4424552;26;21217;-82
2024/04/10 06:07:54;;;;;;;4.07;1.90;;;;;;;13.46;75.40;99149.13;4458060;26;20670;-82
2024/04/10 06:10:01;;;;;;;5.10;1.80;;;;;;;13.54;74.17;99152.09;4469373;26;20539;-82
2024/04/10 06:12:04;;;;;;;4.20;1.50;;;;;;;13.65;75.00;99144.38;4443702;26;20571;-81
2024/04/10 06:14:10;;;;;;;4.77;2.13;;;;;;;13.72;74.77;99151.75;4441615;26;20661;-83
2024/04/10 06:16:13;;;;;;;6.27;2.07;;;;;;;13.77;73.95;99156.72;4477691;26;21209;-82
2024/04/10 06:18:24;;;;;;;5.97;2.10;;;;;;;13.78;73.42;99161.88;4469151;26;20724;-82
2024/04/10 06:20:27;;;;;;;5.90;1.93;;;;;;;13.77;73.46;99164.59;4470430;26;20690;-83
2024/04/10 06:22:33;;;;;;;4.53;2.07;;;;;;;13.74;73.50;99160.41;4467560;26;20678;-83
2024/04/10 06:24:36;;;;;;;9.10;2.70;;;;;;;13.71;73.95;99155.34;4464207;26;20741;-82
2024/04/10 06:26:42;;;;;;;6.30;1.60;;;;;;;13.65;73.83;99162.75;4459454;26;20529;-82
2024/04/10 06:28:45;;;;;;;5.80;1.90;;;;;;;13.57;73.82;99166.81;4458514;26;20627;-82
2024/04/10 06:30:59;;;;;;;7.33;2.00;;;;;;;13.51;73.81;99170.63;4457775;26;20610;-82
2024/04/10 06:33:02;;;;;;;8.40;2.20;;;;;;;13.44;74.17;99176.34;4486354;26;21369;-81
2024/04/10 06:35:14;;;;;;;4.80;2.00;;;;;;;13.38;75.09;99171.50;4487701;26;20559;-82
2024/04/10 06:37:17;;;;;;;6.43;1.70;;;;;;;13.36;74.30;99174.22;4469068;26;21130;-81
2024/04/10 06:39:23;;;;;;;7.90;2.20;;;;;;;13.33;73.78;99168.34;4443045;26;20659;-81
2024/04/10 06:41:26;;;;;;;7.37;1.83;;;;;;;13.31;74.17;99167.59;4450499;26;20616;-81
2024/04/10 06:43:31;;;;;;;5.93;1.50;;;;;;;13.27;74.27;99163.47;4432331;26;20971;-81
2024/04/10 06:45:35;;;;;;;9.30;1.87;;;;;;;13.22;73.80;99165.53;4451880;26;21097;-82
2024/04/10 06:47:41;;;;;;;5.60;1.73;;;;;;;13.18;73.93;99163.22;4436337;26;20576;-81
2024/04/10 06:49:44;;;;;;;7.13;2.00;;;;;;;13.22;74.34;99165.53;4458524;26;20669;-82
2024/04/10 06:51:52;;;;;;;4.43;1.97;;;;;;;13.26;74.43;99169.63;4463439;26;20560;-82
2024/04/10 06:53:55;;;;;;;5.30;1.53;;;;;;;13.32;73.51;99177.13;4443017;26;20563;-81
2024/04/10 06:56:02;;;;;;;8.70;2.47;;;;;;;13.30;74.33;99181.63;4466031;26;20586;-81
2024/04/10 06:58:06;;;;;;;5.00;1.80;;;;;;;13.34;74.88;99180.50;4444898;26;21012;-80
2024/04/10 07:00:16;;;;;;;5.83;2.13;;;;;;;13.44;74.38;99189.47;4441131;26;20576;-81
2024/04/10 07:02:20;;;;;;;6.77;1.60;;;;;;;13.45;73.99;99196.41;4444522;26;20576;-81
2024/04/10 07:04:26;;;;;;;10.73;2.17;;;;;;;13.48;74.03;99193.59;4453189;26;20623;-81
2024/04/10 07:06:30;;;;;;;4.57;1.60;;;;;;;13.43;72.53;99190.41;4454134;26;20620;-81
2024/04/10 07:08:41;;;;;;;5.03;1.40;;;;;;;13.40;72.96;99190.63;4439981;26;20563;-81
2024/04/10 07:10:53;;;;;;;4.47;1.50;;;;;;;13.37;72.92;99193.41;4460321;26;20569;-81
2024/04/10 07:12:58;;;;;;;6.30;1.87;;;;;;;13.37;72.91;99198.66;4447852;26;20532;-81
2024/04/10 07:15:03;;;;;;;3.67;1.67;;;;;;;13.41;72.71;99197.50;4440803;26;20567;-81
2024/04/10 07:17:09;;;;;;;6.80;2.13;;;;;;;13.47;71.57;99205.00;4447917;26;20569;-81
2024/04/10 07:19:14;;;;;;;6.07;1.50;;;;;;;13.55;73.43;99203.59;4442520;26;20673;-80
2024/04/10 07:21:20;;;;;;;4.17;1.73;;;;;;;13.71;73.58;99213.03;4463150;26;20623;-81
2024/04/10 07:23:23;;;;;;;8.90;2.37;;;;;;;13.83;72.40;99217.50;4446582;26;20670;-80
2024/04/10 07:25:31;;;;;;;6.10;1.70;;;;;;;13.87;72.95;99218.16;4458298;26;20626;-81
2024/04/10 07:27:34;;;;;;;5.07;1.60;;;;;;;13.81;71.82;99218.53;4465386;26;20551;-81
2024/04/10 07:29:40;;;;;;;3.97;1.70;;;;;;;13.77;72.43;99211.78;4443690;26;20575;-81
2024/04/10 07:31:43;;;;;;;4.50;1.80;;;;;;;13.75;72.52;99221.53;4439737;26;20564;-82
2024/04/10 07:33:51;;;;;;;5.73;1.50;;;;;;;13.78;72.90;99227.41;4429982;26;20564;-81
2024/04/10 07:35:54;;;;;;;4.37;1.50;;;;;;;13.80;73.10;99227.31;4428369;26;21182;-81
2024/04/10 07:37:57;;;;;;;4.73;1.60;;;;;;;13.85;73.65;99235.78;4455039;26;21032;-81
2024/04/10 07:40:04;;;;;;;5.43;1.70;;;;;;;13.86;73.99;99233.03;4442657;26;21032;-80
2024/04/10 07:42:10;;;;;;;6.37;1.97;;;;;;;13.73;72.71;99241.78;4469575;26;21205;-80
2024/04/10 07:44:20;;;;;;;5.23;1.70;;;;;;;13.68;72.67;99239.44;4454551;26;20690;-81
2024/04/10 07:46:24;;;;;;;4.50;2.07;;;;;;;13.69;72.84;99243.72;4465645;26;20685;-81
2024/04/10 07:48:29;;;;;;;7.50;2.03;;;;;;;13.70;73.52;99241.97;4457651;26;21241;-81
2024/04/10 07:50:33;;;;;;;5.63;1.83;;;;;;;13.70;73.53;99250.66;4466996;26;20594;-81
2024/04/10 07:52:38;;;;;;;6.37;2.00;;;;;;;13.69;73.26;99256.84;4464140;26;20574;-81
2024/04/10 07:54:41;;;;;;;7.67;2.50;;;;;;;13.69;73.20;99246.34;4455256;26;21195;-80
2024/04/10 07:56:47;;;;;;;6.93;1.97;;;;;;;13.73;72.65;99255.72;4438815;26;20587;-81
2024/04/10 07:58:52;;;;;;;5.37;1.80;;;;;;;13.72;73.41;99251.41;4447354;26;20572;-81
2024/04/10 08:00:59;;;;;;;6.17;2.10;;;;;;;13.76;73.56;99258.16;4470955;26;20566;-81
2024/04/10 08:03:03;;;;;;;5.60;2.33;;;;;;;13.78;73.05;99258.88;4459493;26;20574;-81
2024/04/10 08:05:11;;;;;;;7.53;2.50;;;;;;;13.80;72.62;99258.78;4447065;26;21102;-80
2024/04/10 08:07:17;;;;;;;6.03;3.00;;;;;;;13.81;72.63;99270.97;4465546;26;20562;-79
2024/04/10 08:09:22;;;;;;;6.10;2.60;;;;;;;13.86;71.68;99268.91;4465390;26;20563;-81
2024/04/10 08:11:27;;;;;;;4.23;1.97;;;;;;;13.89;71.38;99274.81;4466494;26;20569;-81
2024/04/10 08:13:33;;;;;;;6.03;3.03;;;;;;;13.95;72.03;99279.69;4454852;26;20603;-81
2024/04/10 08:15:41;;;;;;;9.97;2.43;;;;;;;13.95;72.23;99281.44;4462763;26;20575;-81
2024/04/10 08:17:47;;;;;;;7.00;2.20;;;;;;;13.99;72.04;99281.16;4441781;26;21146;-80
2024/04/10 08:19:53;;;;;;;6.63;2.43;;;;;;;14.05;72.22;99291.28;4438119;26;20951;-81
2024/04/10 08:22:01;;;;;;;8.33;2.87;;;;;;;14.11;71.29;99290.91;4471772;26;20643;-81
2024/04/10 08:24:05;;;;;;;7.90;3.00;;;;;;;14.12;71.04;99287.34;4437062;26;20638;-81
2024/04/10 08:26:13;;;;;;;6.53;3.30;;;;;;;14.20;71.48;99290.31;4457149;26;20468;-82
2024/04/10 08:28:18;;;;;;;6.93;2.60;;;;;;;14.31;71.22;99293.09;4466916;26;20247;-81
2024/04/10 08:30:24;;;;;;;8.40;3.30;;;;;;;14.43;72.10;99293.16;4439702;26;21118;-81
2024/04/10 08:32:29;;;;;;;9.03;3.17;;;;;;;14.51;71.11;99297.91;4455818;26;20769;-81
2024/04/10 08:34:36;;;;;;;4.93;2.63;;;;;;;14.46;71.38;99300.00;4456844;26;20738;-81
2024/04/10 08:36:40;;;;;;;7.03;2.70;;;;;;;14.45;69.14;99285.19;4443693;26;20576;-83
2024/04/10 08:38:47;;;;;;;8.43;2.80;;;;;;;14.30;69.76;99297.53;4446543;26;20616;-81
2024/04/10 08:40:52;;;;;;;7.20;3.20;;;;;;;14.39;71.09;99301.34;4487371;26;20677;-82
2024/04/10 08:42:59;;;;;;;8.03;3.10;;;;;;;14.47;71.69;99304.31;4442069;26;20910;-82
2024/04/10 08:45:01;;;;;;;9.00;3.30;;;;;;;14.51;70.46;99300.53;4475769;26;20615;-82
2024/04/10 08:47:08;;;;;;;7.23;3.10;;;;;;;14.60;72.09;99308.69;4455464;26;20648;-82
2024/04/10 08:49:14;;;;;;;10.50;3.10;;;;;;;14.63;69.81;99313.72;4475297;26;20673;-82
2024/04/10 08:51:19;;;;;;;7.77;3.00;;;;;;;14.50;69.42;99314.63;4457019;26;20533;-82
2024/04/10 08:53:24;;;;;;;6.03;2.83;;;;;;;14.58;70.74;99320.22;4475984;26;21098;-83
2024/04/10 08:55:30;;;;;;;9.07;3.23;;;;;;;14.61;70.20;99318.22;4491265;26;20607;-82
2024/04/10 08:57:33;;;;;;;7.77;3.37;;;;;;;14.61;70.60;99308.56;4471923;26;20615;-82
2024/04/10 08:59:39;;;;;;;8.57;3.27;;;;;;;14.57;69.59;99319.38;4457529;26;20591;-81
2024/04/10 09:01:43;;;;;;;7.60;2.97;;;;;;;14.59;68.72;99308.78;4465038;26;20904;-82
2024/04/10 09:03:53;;;;;;;6.40;2.60;;;;;;;14.65;68.56;99319.72;4471353;26;20539;-81
2024/04/10 09:06:05;;;;;;;7.67;2.90;;;;;;;14.78;69.72;99324.06;4439573;26;20577;-82
2024/04/10 09:08:11;;;;;;;7.47;3.00;;;;;;;14.93;69.15;99328.31;4442073;26;20910;-82
2024/04/10 09:10:14;;;;;;;6.53;2.73;;;;;;;14.91;70.05;99332.81;4454418;26;20545;-82
2024/04/10 09:12:23;;;;;;;7.90;3.47;;;;;;;14.97;70.36;99328.94;4461706;26;20621;-81
2024/04/10 09:14:30;;;;;;;9.17;3.20;;;;;;;14.91;70.58;99329.34;4467158;26;20642;-82
2024/04/10 09:16:34;;;;;;;5.93;2.50;;;;;;;14.93;70.50;99336.22;4465737;26;20672;-82
2024/04/10 09:18:40;;;;;;;9.10;3.30;;;;;;;15.09;71.04;99347.38;4449284;26;20728;-80
2024/04/10 09:20:43;;;;;;;5.70;3.10;;;;;;;15.05;71.11;99345.91;4445168;26;20594;-82
2024/04/10 09:23:04;;;;;;;7.63;2.90;;;;;;;14.84;68.70;99336.81;4469563;26;20641;-82
2024/04/10 09:25:12;;;;;;;6.90;2.87;;;;;;;14.69;68.00;99345.69;4450513;26;21205;-82
2024/04/10 09:27:18;;;;;;;7.40;3.17;;;;;;;14.82;68.80;99349.19;4480193;26;20545;-82
2024/04/10 09:29:24;;;;;;;9.53;2.63;;;;;;;15.14;68.81;99350.56;4461730;26;20669;-82
2024/04/10 09:31:31;;;;;;;6.70;2.67;;;;;;;15.52;69.03;99362.84;4451457;26;20609;-82
2024/04/10 09:33:37;;;;;;;7.33;3.07;;;;;;;15.53;66.72;99359.28;4437288;26;20722;-82
2024/04/10 09:35:44;;;;;;;5.80;2.93;;;;;;;15.67;70.00;99360.00;4458178;26;20573;-82
2024/04/10 09:37:48;;;;;;;6.73;2.60;;;;;;;15.82;69.04;99366.00;4452662;26;20562;-82
2024/04/10 09:39:56;;;;;;;6.60;2.57;;;;;;;15.87;67.21;99364.72;4456055;26;21038;-82
2024/04/10 09:41:59;;;;;;;10.70;2.97;;;;;;;16.05;68.82;99376.59;4480922;26;20624;-82
2024/04/10 09:44:06;;;;;;;6.87;2.33;;;;;;;16.23;65.67;99365.66;4487111;26;20682;-82
2024/04/10 09:46:10;;;;;;;6.73;3.13;;;;;;;16.31;69.03;99354.59;4467538;26;21041;-82
2024/04/10 09:48:16;;;;;;;8.17;2.80;;;;;;;16.48;68.20;99357.72;4440279;26;20749;-82
2024/04/10 09:50:20;;;;;;;5.83;2.77;;;;;;;16.54;67.30;99362.53;4473180;26;20550;-82
2024/04/10 09:52:25;;;;;;;6.30;2.13;;;;;;;16.64;66.20;99364.41;4484729;26;20562;-82
2024/04/10 09:54:28;;;;;;;6.30;2.73;;;;;;;16.77;66.96;99373.09;4439528;26;20574;-82